Time;durP1;ratioP1;P1;durP2;ratioP2;P2;SDS_P1;SDS_P2;PMS_P1;PMS_P2;Temp;Humidity;BMP_temperature;BMP_pressure;BME280_temperature;BME280_humidity;BME280_pressure;Samples;Min_cycle;Max_cycle;Signal;HPM_P1;HPM_P2
2021/04/19 00:00:29;;;;;;;1999.90;999.90;;;9.80;52.10;;;;;;5030786;28;20140;-71
2021/04/19 00:02:55;;;;;;;1999.90;999.90;;;9.80;52.20;;;;;;5066596;28;20046;-71
2021/04/19 00:05:22;;;;;;;1999.90;999.90;;;9.70;52.20;;;;;;5058111;28;20059;-71
2021/04/19 00:07:48;;;;;;;1999.90;999.90;;;9.70;52.20;;;;;;5062318;28;20068;-72
2021/04/19 00:10:17;;;;;;;1999.90;999.90;;;9.70;52.50;;;;;;5056685;28;20164;-71
2021/04/19 00:12:44;;;;;;;1999.90;999.90;;;9.60;52.50;;;;;;5056166;28;20055;-72
2021/04/19 00:15:12;;;;;;;1999.90;999.90;;;9.50;52.60;;;;;;5030491;28;20037;-71
2021/04/19 00:17:39;;;;;;;1999.90;999.90;;;9.50;52.30;;;;;;5049656;28;20044;-71
2021/04/19 00:20:06;;;;;;;1999.90;999.90;;;9.50;52.30;;;;;;5034398;28;20353;-71
2021/04/19 00:22:33;;;;;;;1999.90;999.90;;;9.60;52.40;;;;;;5028619;28;20041;-71
2021/04/19 00:25:00;;;;;;;1999.90;999.90;;;9.60;52.60;;;;;;5060997;28;20415;-71
2021/04/19 00:27:26;;;;;;;1999.90;999.90;;;9.60;52.30;;;;;;5050436;28;20542;-71
2021/04/19 00:29:52;;;;;;;1999.90;999.90;;;9.70;52.50;;;;;;5064145;28;20052;-71
2021/04/19 00:32:18;;;;;;;1999.90;999.90;;;9.70;52.50;;;;;;5063336;28;20048;-72
2021/04/19 00:34:45;;;;;;;1999.90;999.90;;;9.80;52.40;;;;;;5063689;28;20088;-71
2021/04/19 00:37:11;;;;;;;1999.90;999.90;;;9.80;52.30;;;;;;5062987;28;20040;-72
2021/04/19 00:39:38;;;;;;;1999.90;999.90;;;9.70;52.10;;;;;;5035916;28;20056;-71
2021/04/19 00:42:05;;;;;;;1999.90;999.90;;;9.60;52.20;;;;;;5064267;28;20052;-71
2021/04/19 00:44:32;;;;;;;1999.90;999.90;;;9.60;52.40;;;;;;5035419;28;20067;-71
2021/04/19 00:46:59;;;;;;;1999.90;999.90;;;9.60;52.50;;;;;;5058796;28;20055;-71
2021/04/19 00:49:26;;;;;;;1999.90;999.90;;;9.60;52.70;;;;;;5058561;28;20055;-71
2021/04/19 00:51:54;;;;;;;1999.90;999.90;;;9.50;52.70;;;;;;5054905;28;20041;-71
2021/04/19 00:54:22;;;;;;;1999.90;999.90;;;9.50;52.90;;;;;;5057386;28;20060;-71
2021/04/19 00:56:50;;;;;;;1999.90;999.90;;;9.50;52.90;;;;;;5060739;28;20310;-72
2021/04/19 00:59:17;;;;;;;1999.90;999.90;;;9.50;53.20;;;;;;5056630;28;20045;-71
2021/04/19 01:01:45;;;;;;;1999.90;999.90;;;9.40;53.20;;;;;;5059551;28;20042;-71
2021/04/19 01:04:13;;;;;;;1999.90;999.90;;;9.40;53.30;;;;;;5063112;28;20057;-72
2021/04/19 01:06:40;;;;;;;1999.90;999.90;;;9.30;53.50;;;;;;5051996;28;20136;-72
2021/04/19 01:09:08;;;;;;;1999.90;999.90;;;9.30;53.50;;;;;;5047337;28;20047;-71
2021/04/19 01:11:34;;;;;;;1999.90;999.90;;;9.20;53.40;;;;;;5044146;28;20060;-72
2021/04/19 01:14:01;;;;;;;1999.90;999.90;;;9.20;53.70;;;;;;5052468;28;20052;-71
2021/04/19 01:16:27;;;;;;;1999.90;999.90;;;9.10;53.60;;;;;;5034356;28;20053;-71
2021/04/19 01:18:54;;;;;;;1999.90;999.90;;;9.10;53.60;;;;;;5049427;28;20053;-71
2021/04/19 01:21:20;;;;;;;1999.90;999.90;;;9.10;53.60;;;;;;5057344;28;20048;-71
2021/04/19 01:23:47;;;;;;;1999.90;999.90;;;9.10;53.70;;;;;;5052382;28;20131;-71
2021/04/19 01:26:13;;;;;;;1999.90;999.90;;;9.00;53.80;;;;;;5026767;28;20048;-71
2021/04/19 01:28:54;;;;;;;1999.90;999.90;;;9.00;53.60;;;;;;5053088;28;20049;-70
2021/04/19 01:31:21;;;;;;;1999.90;999.90;;;9.00;53.70;;;;;;5060581;28;20052;-71
2021/04/19 01:33:48;;;;;;;1999.90;999.90;;;8.90;53.70;;;;;;5045471;28;20053;-71
2021/04/19 01:36:14;;;;;;;1999.90;999.90;;;8.80;54.00;;;;;;5058702;28;20114;-71
2021/04/19 01:38:41;;;;;;;1999.90;999.90;;;8.80;53.90;;;;;;5051188;28;20066;-70
2021/04/19 01:41:07;;;;;;;1999.90;999.90;;;8.70;54.00;;;;;;5054246;28;20045;-72
2021/04/19 01:43:34;;;;;;;1999.90;999.90;;;8.70;54.10;;;;;;5055077;28;20530;-71
2021/04/19 01:46:00;;;;;;;1999.90;999.90;;;8.60;54.00;;;;;;5037170;28;20045;-70
2021/04/19 01:48:27;;;;;;;1999.90;999.90;;;8.60;53.80;;;;;;5050304;28;20124;-70
2021/04/19 01:50:55;;;;;;;1999.90;999.90;;;8.60;54.00;;;;;;5056573;28;20159;-69
2021/04/19 01:53:22;;;;;;;1999.90;999.90;;;8.50;53.80;;;;;;5046291;28;20150;-70
2021/04/19 01:55:49;;;;;;;1999.90;999.90;;;8.50;53.70;;;;;;5038151;28;20049;-70
2021/04/19 01:58:19;;;;;;;1999.90;999.90;;;8.40;54.00;;;;;;5058888;28;20055;-71
2021/04/19 02:00:51;;;;;;;1999.90;999.90;;;8.30;53.90;;;;;;5051618;28;20045;-71
2021/04/19 02:03:42;;;;;;;1999.90;999.90;;;8.30;53.90;;;;;;5052612;28;20151;-71
2021/04/19 02:06:35;;;;;;;1999.90;999.90;;;8.20;53.90;;;;;;5040763;28;20047;-71
2021/04/19 02:09:16;;;;;;;1999.90;999.90;;;8.10;54.40;;;;;;5041127;28;20440;-71
2021/04/19 02:12:08;;;;;;;1999.90;999.90;;;8.10;53.70;;;;;;5045474;28;20677;-71
2021/04/19 02:14:59;;;;;;;1999.90;999.90;;;8.00;53.60;;;;;;5033362;28;20080;-71
2021/04/19 02:17:39;;;;;;;1999.90;999.90;;;7.90;54.00;;;;;;5050539;28;20115;-71
2021/04/19 02:20:15;;;;;;;1999.90;999.90;;;7.90;54.00;;;;;;5049333;28;20798;-70
2021/04/19 02:22:46;;;;;;;1999.90;999.90;;;7.70;53.80;;;;;;5053568;28;20048;-71
2021/04/19 02:25:29;;;;;;;1999.90;999.90;;;7.60;53.90;;;;;;5047629;28;20047;-71
2021/04/19 02:28:00;;;;;;;1999.90;999.90;;;7.60;54.10;;;;;;5015873;28;20445;-70
2021/04/19 02:30:32;;;;;;;1999.90;999.90;;;7.50;53.30;;;;;;5020707;28;20049;-71
2021/04/19 02:32:59;;;;;;;1999.90;999.90;;;7.50;53.40;;;;;;5038530;28;20047;-71
2021/04/19 02:35:29;;;;;;;1999.90;999.90;;;7.40;53.20;;;;;;5051928;28;20436;-71
2021/04/19 02:37:57;;;;;;;1999.90;999.90;;;7.40;53.50;;;;;;5050620;28;20445;-71
2021/04/19 02:40:42;;;;;;;1999.90;999.90;;;7.40;53.70;;;;;;5050442;28;20040;-71
2021/04/19 02:43:10;;;;;;;1999.90;999.90;;;7.30;53.90;;;;;;5037094;28;20040;-70
2021/04/19 02:45:37;;;;;;;1999.90;999.90;;;7.30;53.80;;;;;;5029663;28;20494;-71
2021/04/19 02:48:05;;;;;;;1999.90;999.90;;;7.30;53.70;;;;;;5050633;28;20132;-70
2021/04/19 02:50:33;;;;;;;1999.90;999.90;;;7.20;53.80;;;;;;5043150;28;20056;-70
2021/04/19 02:53:01;;;;;;;1999.90;999.90;;;7.20;54.00;;;;;;5050854;28;20048;-70
2021/04/19 02:55:29;;;;;;;1999.90;999.90;;;7.10;54.00;;;;;;5046441;28;20045;-70
2021/04/19 02:58:02;;;;;;;1999.90;999.90;;;7.10;54.00;;;;;;5051104;28;20085;-70
2021/04/19 03:00:33;;;;;;;1999.90;999.90;;;7.10;54.00;;;;;;5059328;28;20054;-70
2021/04/19 03:03:04;;;;;;;1999.90;999.90;;;7.10;53.80;;;;;;5052665;28;20045;-70
2021/04/19 03:05:31;;;;;;;1999.90;999.90;;;7.00;53.90;;;;;;5055440;28;20167;-70
2021/04/19 03:08:05;;;;;;;1999.90;999.90;;;7.00;54.20;;;;;;5046753;28;20048;-70
2021/04/19 03:10:35;;;;;;;1999.90;999.90;;;7.00;54.20;;;;;;5050492;28;20136;-71
2021/04/19 03:13:03;;;;;;;1999.90;999.90;;;7.00;54.50;;;;;;5040778;28;20131;-70
2021/04/19 03:15:38;;;;;;;1999.90;999.90;;;7.00;54.40;;;;;;5063736;28;20075;-70
2021/04/19 03:18:09;;;;;;;1999.90;999.90;;;7.00;54.50;;;;;;5030517;28;20057;-70
2021/04/19 03:21:07;;;;;;;1999.90;999.90;;;7.10;54.90;;;;;;5053334;28;20048;-70
2021/04/19 03:23:37;;;;;;;1999.90;999.90;;;7.10;54.90;;;;;;5053371;28;20049;-70
2021/04/19 03:26:05;;;;;;;1999.90;999.90;;;7.10;54.70;;;;;;5054918;28;20043;-70
2021/04/19 03:28:33;;;;;;;1999.90;999.90;;;7.10;54.60;;;;;;5046555;28;20052;-70
2021/04/19 03:31:06;;;;;;;1999.90;999.90;;;7.10;55.20;;;;;;5047645;28;20057;-70
2021/04/19 03:33:35;;;;;;;1999.90;999.90;;;7.10;55.10;;;;;;5047695;28;20049;-71
2021/04/19 03:36:03;;;;;;;1999.90;999.90;;;7.00;55.00;;;;;;5065796;28;20102;-70
2021/04/19 03:38:33;;;;;;;1999.90;999.90;;;7.00;54.90;;;;;;5062031;28;20661;-70
2021/04/19 03:41:01;;;;;;;1999.90;999.90;;;7.00;55.30;;;;;;5055094;28;20303;-70
2021/04/19 03:43:29;;;;;;;1999.90;999.90;;;7.00;55.20;;;;;;5055159;28;20049;-70
2021/04/19 03:45:58;;;;;;;1999.90;999.90;;;6.90;55.20;;;;;;5065168;28;20052;-70
2021/04/19 03:48:27;;;;;;;1999.90;999.90;;;6.90;55.40;;;;;;5045990;28;20055;-70
2021/04/19 03:51:08;;;;;;;1999.90;999.90;;;6.90;55.30;;;;;;5047043;28;20416;-70
2021/04/19 03:53:36;;;;;;;1999.90;999.90;;;6.90;55.60;;;;;;5050112;28;20053;-70
2021/04/19 03:56:05;;;;;;;1999.90;999.90;;;6.90;55.40;;;;;;5049829;28;20068;-71
2021/04/19 03:58:33;;;;;;;1999.90;999.90;;;6.80;55.20;;;;;;5050280;28;20049;-71
2021/04/19 04:01:04;;;;;;;1999.90;999.90;;;6.80;55.60;;;;;;5044940;28;20049;-70
2021/04/19 04:03:32;;;;;;;1999.90;999.90;;;6.70;55.50;;;;;;5046410;28;20256;-70
2021/04/19 04:06:00;;;;;;;1999.90;999.90;;;6.70;55.50;;;;;;5051048;28;20037;-70
2021/04/19 04:08:28;;;;;;;1999.90;999.90;;;6.60;55.30;;;;;;5047853;28;20489;-70
2021/04/19 04:10:55;;;;;;;1999.90;999.90;;;6.60;55.30;;;;;;5048424;28;20352;-69
2021/04/19 04:13:22;;;;;;;1999.90;999.90;;;6.60;55.50;;;;;;5027718;28;20047;-70
2021/04/19 04:15:50;;;;;;;1999.90;999.90;;;6.50;55.50;;;;;;5041087;28;20477;-69
2021/04/19 04:18:18;;;;;;;1999.90;999.90;;;6.50;55.70;;;;;;5020864;28;20131;-69
2021/04/19 04:20:45;;;;;;;1999.90;999.90;;;6.50;55.60;;;;;;5038964;28;20053;-69
2021/04/19 04:23:11;;;;;;;1999.90;999.90;;;6.40;55.30;;;;;;5039205;28;21228;-70
2021/04/19 04:25:38;;;;;;;1999.90;999.90;;;6.40;55.40;;;;;;5046535;28;20048;-70
2021/04/19 04:28:05;;;;;;;1999.90;999.90;;;6.30;55.50;;;;;;5039914;28;20080;-69
2021/04/19 04:30:34;;;;;;;1999.90;999.90;;;6.30;55.50;;;;;;5044593;28;20071;-69
2021/04/19 04:33:01;;;;;;;;;;;6.30;55.50;;;;;;5038507;28;20049;-69
2021/04/19 04:35:28;;;;;;;1999.90;999.90;;;6.20;55.90;;;;;;5045230;28;20402;-70
2021/04/19 04:37:55;;;;;;;1999.90;999.90;;;6.20;55.70;;;;;;5041896;28;20048;-69
2021/04/19 04:40:21;;;;;;;1999.90;999.90;;;6.20;55.70;;;;;;5027486;28;20080;-69
2021/04/19 04:42:50;;;;;;;1999.90;999.90;;;6.20;55.90;;;;;;5054804;28;20048;-70
2021/04/19 04:45:16;;;;;;;1999.90;999.90;;;6.30;56.30;;;;;;5048139;28;20089;-69
2021/04/19 04:48:07;;;;;;;1999.90;999.90;;;6.20;56.60;;;;;;5030603;28;20067;-69
2021/04/19 04:50:44;;;;;;;1999.90;999.90;;;6.30;56.70;;;;;;5034339;28;20052;-69
2021/04/19 04:53:21;;;;;;;1999.90;999.90;;;6.30;56.80;;;;;;5026930;28;20056;-70
2021/04/19 04:55:48;;;;;;;1999.90;999.90;;;6.30;56.80;;;;;;5026362;28;20045;-70
2021/04/19 04:58:15;;;;;;;1999.90;999.90;;;6.30;56.50;;;;;;5058223;28;20048;-69
2021/04/19 05:00:43;;;;;;;1999.90;999.90;;;6.30;56.70;;;;;;5051482;28;20067;-70
2021/04/19 05:03:11;;;;;;;1999.90;999.90;;;6.30;56.90;;;;;;5051380;28;20079;-70
2021/04/19 05:05:40;;;;;;;1999.90;999.90;;;6.30;56.90;;;;;;5050943;28;20045;-69
2021/04/19 05:08:11;;;;;;;1999.90;999.90;;;6.30;56.80;;;;;;5057171;28;20327;-69
2021/04/19 05:10:38;;;;;;;1999.90;999.90;;;6.30;56.90;;;;;;5051484;28;20131;-70
2021/04/19 05:13:15;;;;;;;1999.90;999.90;;;6.30;57.40;;;;;;5033331;28;20094;-69
2021/04/19 05:15:46;;;;;;;1999.90;999.90;;;6.40;57.30;;;;;;5044725;28;20124;-69
2021/04/19 05:18:19;;;;;;;1999.90;999.90;;;6.40;57.20;;;;;;5044407;28;20368;-69
2021/04/19 05:20:47;;;;;;;1999.90;999.90;;;6.40;57.60;;;;;;5044649;28;20476;-70
2021/04/19 05:23:16;;;;;;;1999.90;999.90;;;6.40;57.60;;;;;;5050488;28;20045;-70
2021/04/19 05:25:44;;;;;;;1999.90;999.90;;;6.40;57.60;;;;;;5031990;28;20037;-70
2021/04/19 05:28:11;;;;;;;1999.90;999.90;;;6.40;57.90;;;;;;5049114;28;20040;-70
2021/04/19 05:30:38;;;;;;;1999.90;999.90;;;6.30;57.60;;;;;;5033480;28;20560;-70
2021/04/19 05:33:05;;;;;;;1999.90;999.90;;;6.30;58.00;;;;;;5049132;28;20050;-70
2021/04/19 05:35:34;;;;;;;1999.90;999.90;;;6.30;58.10;;;;;;5043459;28;20053;-69
2021/04/19 05:38:03;;;;;;;1999.90;999.90;;;6.30;58.10;;;;;;5018839;28;20107;-70
2021/04/19 05:40:32;;;;;;;1999.90;999.90;;;6.30;58.00;;;;;;5020621;28;20095;-70
2021/04/19 05:43:00;;;;;;;1999.90;999.90;;;6.30;58.10;;;;;;5023802;28;20326;-70
2021/04/19 05:45:26;;;;;;;1999.90;999.90;;;6.30;58.10;;;;;;5021633;28;20065;-70
2021/04/19 05:47:53;;;;;;;1999.90;999.90;;;6.30;58.50;;;;;;5024590;28;20373;-70
2021/04/19 05:50:23;;;;;;;1999.90;999.90;;;6.30;58.80;;;;;;5024232;28;20408;-70
2021/04/19 05:52:55;;;;;;;1999.90;999.90;;;6.40;58.90;;;;;;5029042;28;20052;-70
2021/04/19 05:55:29;;;;;;;1999.90;999.90;;;6.40;58.90;;;;;;5036809;28;20468;-70
2021/04/19 05:58:18;;;;;;;1999.90;999.90;;;6.40;59.00;;;;;;5049227;28;20087;-70
2021/04/19 06:00:54;;;;;;;1999.90;999.90;;;6.50;58.90;;;;;;5043683;28;20392;-70
2021/04/19 06:03:38;;;;;;;1999.90;999.90;;;6.50;58.90;;;;;;5048151;28;21034;-70
2021/04/19 06:06:04;;;;;;;1999.90;999.90;;;6.60;59.40;;;;;;5048640;28;20080;-69
2021/04/19 06:08:40;;;;;;;1999.90;999.90;;;6.60;59.90;;;;;;5025447;28;20055;-69
2021/04/19 06:11:08;;;;;;;1999.90;999.90;;;6.70;60.00;;;;;;5049195;28;20044;-70
2021/04/19 06:13:37;;;;;;;1999.90;999.90;;;6.80;60.20;;;;;;5043582;28;20528;-70
2021/04/19 06:16:03;;;;;;;1999.90;999.90;;;6.90;60.40;;;;;;5049486;28;20131;-69
2021/04/19 06:18:32;;;;;;;1999.90;999.90;;;6.90;60.60;;;;;;5035176;28;20464;-70
2021/04/19 06:21:01;;;;;;;1999.90;999.90;;;7.00;61.70;;;;;;5023727;28;20504;-70
2021/04/19 06:23:28;;;;;;;1999.90;999.90;;;7.10;61.50;;;;;;5016146;28;20058;-70
2021/04/19 06:25:54;;;;;;;1999.90;999.90;;;7.10;61.40;;;;;;5027594;28;20052;-70
2021/04/19 06:28:23;;;;;;;1999.90;999.90;;;7.20;61.80;;;;;;5040080;28;20079;-70
2021/04/19 06:31:13;;;;;;;1999.90;999.90;;;7.30;62.10;;;;;;5058333;28;20488;-70
2021/04/19 06:33:40;;;;;;;1999.90;999.90;;;7.30;62.10;;;;;;5038936;28;20127;-70
2021/04/19 06:36:06;;;;;;;1999.90;999.90;;;7.40;62.50;;;;;;5049337;28;20065;-70
2021/04/19 06:38:33;;;;;;;1999.90;999.90;;;7.40;62.60;;;;;;5058410;28;20721;-70
2021/04/19 06:41:00;;;;;;;1999.90;999.90;;;7.50;62.80;;;;;;5050161;28;20392;-70
2021/04/19 06:43:29;;;;;;;1999.90;999.90;;;7.50;62.80;;;;;;5047228;28;20049;-69
2021/04/19 06:45:56;;;;;;;1999.90;999.90;;;7.50;62.90;;;;;;5044480;28;20075;-70
2021/04/19 06:48:23;;;;;;;1999.90;999.90;;;7.60;63.20;;;;;;5050687;28;20445;-70
2021/04/19 06:50:49;;;;;;;1999.90;999.90;;;7.60;63.00;;;;;;5047812;28;20772;-70
2021/04/19 06:53:16;;;;;;;1999.90;999.90;;;7.60;63.50;;;;;;5046129;28;20069;-70
2021/04/19 06:55:42;;;;;;;1999.90;999.90;;;7.70;63.80;;;;;;5024238;28;20047;-70
2021/04/19 06:58:09;;;;;;;1999.90;999.90;;;7.70;64.10;;;;;;5044258;28;20052;-70
2021/04/19 07:00:37;;;;;;;1999.90;999.90;;;7.80;64.20;;;;;;5048472;28;20055;-70
2021/04/19 07:03:05;;;;;;;1999.90;999.90;;;7.80;64.50;;;;;;5048705;28;20037;-70
2021/04/19 07:05:34;;;;;;;1999.90;999.90;;;7.90;64.90;;;;;;5045624;28;20056;-70
2021/04/19 07:08:13;;;;;;;1999.90;999.90;;;8.00;65.00;;;;;;5047220;28;20132;-70
2021/04/19 07:10:42;;;;;;;1999.90;999.90;;;8.00;65.40;;;;;;5030004;28;20080;-70
2021/04/19 07:13:09;;;;;;;;;;;8.10;65.70;;;;;;5043333;28;20419;-70
2021/04/19 07:15:45;;;;;;;1999.90;999.90;;;8.20;66.80;;;;;;5029506;28;20011;-70
2021/04/19 07:18:14;;;;;;;1999.90;999.90;;;8.40;65.90;;;;;;5037291;28;20064;-70
2021/04/19 07:20:41;;;;;;;1999.90;999.90;;;8.50;66.30;;;;;;5050106;28;20048;-69
2021/04/19 07:23:07;;;;;;;1999.90;999.90;;;8.70;66.80;;;;;;5043845;28;20152;-70
2021/04/19 07:25:33;;;;;;;1999.90;999.90;;;8.80;67.30;;;;;;5048393;28;20354;-70
2021/04/19 07:28:03;;;;;;;1999.90;999.90;;;8.90;67.60;;;;;;5047388;28;20075;-70
2021/04/19 07:30:29;;;;;;;1999.90;999.90;;;8.90;67.80;;;;;;5029382;28;20400;-69
2021/04/19 07:32:55;;;;;;;1999.90;999.90;;;9.00;68.10;;;;;;5044363;28;20048;-70
2021/04/19 07:35:29;;;;;;;1999.90;999.90;;;9.10;68.40;;;;;;5044733;28;20415;-70
2021/04/19 07:37:58;;;;;;;1999.90;999.90;;;9.10;68.50;;;;;;5047483;28;20085;-70
2021/04/19 07:40:30;;;;;;;1999.90;999.90;;;9.20;68.90;;;;;;5051057;28;20067;-70
2021/04/19 07:43:17;;;;;;;1999.90;999.90;;;9.40;69.30;;;;;;5026819;28;20147;-70
2021/04/19 07:46:08;;;;;;;1999.90;999.90;;;9.40;69.70;;;;;;5024092;28;20047;-70
2021/04/19 07:48:40;;;;;;;1999.90;999.90;;;9.50;70.10;;;;;;5028570;28;20044;-70
2021/04/19 07:51:29;;;;;;;1999.90;999.90;;;9.60;70.40;;;;;;5027667;28;20045;-69
2021/04/19 07:54:10;;;;;;;1999.90;999.90;;;9.60;70.70;;;;;;5046661;28;20081;-69
2021/04/19 07:56:37;;;;;;;1999.90;999.90;;;9.70;71.00;;;;;;5047743;28;20138;-70
2021/04/19 07:59:33;;;;;;;1999.90;999.90;;;9.80;71.30;;;;;;5046180;28;20047;-70
2021/04/19 08:02:01;;;;;;;1999.90;999.90;;;9.90;71.70;;;;;;5050342;28;20052;-70
2021/04/19 08:04:29;;;;;;;1999.90;999.90;;;9.90;72.00;;;;;;5045714;28;20041;-70
2021/04/19 08:06:55;;;;;;;1999.90;999.90;;;10.00;71.60;;;;;;5044994;28;20087;-70
2021/04/19 08:09:31;;;;;;;1999.90;999.90;;;10.10;72.30;;;;;;5046927;28;20137;-70
2021/04/19 08:12:08;;;;;;;1999.90;999.90;;;10.10;72.60;;;;;;5046654;28;20045;-69
2021/04/19 08:14:50;;;;;;;1999.90;999.90;;;10.20;73.00;;;;;;5030008;28;20165;-70
2021/04/19 08:17:17;;;;;;;1999.90;999.90;;;10.40;73.60;;;;;;5044942;28;20114;-70
2021/04/19 08:19:44;;;;;;;1999.90;999.90;;;10.50;73.90;;;;;;5046623;28;20045;-70
2021/04/19 08:22:22;;;;;;;1999.90;999.90;;;10.60;74.40;;;;;;5024038;28;20380;-70
2021/04/19 08:24:50;;;;;;;1999.90;999.90;;;10.80;74.90;;;;;;5047262;28;20059;-70
2021/04/19 08:27:22;;;;;;;1999.90;999.90;;;10.90;75.30;;;;;;5047679;28;20055;-70
2021/04/19 08:29:49;;;;;;;1999.90;999.90;;;11.10;77.00;;;;;;5051949;28;20543;-70
2021/04/19 08:32:22;;;;;;;1999.90;999.90;;;11.20;76.20;;;;;;5028682;28;20053;-70
2021/04/19 08:34:52;;;;;;;1999.90;999.90;;;11.30;76.20;;;;;;5034377;28;20106;-70
2021/04/19 08:37:26;;;;;;;1999.90;999.90;;;11.30;76.00;;;;;;5049084;28;20472;-70
2021/04/19 08:39:53;;;;;;;1999.90;999.90;;;11.40;76.20;;;;;;5046281;28;20044;-70
2021/04/19 08:42:20;;;;;;;1999.90;999.90;;;11.30;76.20;;;;;;5049450;28;20048;-69
2021/04/19 08:44:47;;;;;;;1999.90;999.90;;;11.40;76.60;;;;;;5050048;28;20061;-69
2021/04/19 08:47:18;;;;;;;1999.90;999.90;;;11.40;76.60;;;;;;5046438;28;20152;-70
2021/04/19 08:49:46;;;;;;;1999.90;999.90;;;11.40;76.90;;;;;;5050641;28;20056;-69
2021/04/19 08:52:14;;;;;;;1999.90;999.90;;;11.40;77.10;;;;;;5049499;28;20052;-69
2021/04/19 08:54:40;;;;;;;1999.90;999.90;;;11.50;77.30;;;;;;5052548;28;20412;-69
2021/04/19 08:57:07;;;;;;;1999.90;999.90;;;11.60;77.90;;;;;;5026567;28;20083;-69
2021/04/19 08:59:35;;;;;;;1999.90;999.90;;;11.80;78.50;;;;;;5045647;28;20388;-69
2021/04/19 09:02:03;;;;;;;1999.90;999.90;;;12.10;79.00;;;;;;5049282;28;20404;-69
2021/04/19 09:04:30;;;;;;;1999.90;999.90;;;12.30;79.30;;;;;;5048149;28;20415;-69
2021/04/19 09:06:58;;;;;;;1999.90;999.90;;;12.40;79.80;;;;;;5047654;28;20536;-70
2021/04/19 09:09:41;;;;;;;1999.90;999.90;;;12.60;79.70;;;;;;5049484;28;20075;-70
2021/04/19 09:12:11;;;;;;;1999.90;999.90;;;12.80;80.50;;;;;;5028236;28;20048;-69
2021/04/19 09:14:39;;;;;;;1999.90;999.90;;;13.00;80.30;;;;;;5048099;28;20056;-70
2021/04/19 09:17:06;;;;;;;1999.90;999.90;;;13.30;80.30;;;;;;5044403;28;20052;-70
2021/04/19 09:19:38;;;;;;;1999.90;999.90;;;13.50;80.10;;;;;;5048581;28;20049;-70
2021/04/19 09:22:13;;;;;;;1999.90;999.90;;;13.60;80.20;;;;;;5031830;28;20044;-70
2021/04/19 09:25:09;;;;;;;1999.90;999.90;;;13.70;80.60;;;;;;5031948;28;20044;-70
2021/04/19 09:27:52;;;;;;;1999.90;999.90;;;14.00;81.00;;;;;;5029918;28;20151;-70
2021/04/19 09:30:22;;;;;;;1999.90;999.90;;;14.10;80.90;;;;;;5047473;28;20119;-70
2021/04/19 09:33:04;;;;;;;1999.90;999.90;;;14.00;80.80;;;;;;5046082;28;20132;-69
2021/04/19 09:35:39;;;;;;;1999.90;999.90;;;14.00;80.80;;;;;;5051441;28;20092;-69
2021/04/19 09:38:09;;;;;;;1999.90;999.90;;;13.80;80.80;;;;;;5048867;28;20122;-70
2021/04/19 09:40:55;;;;;;;1999.90;999.90;;;13.70;80.60;;;;;;5046599;28;20395;-70
2021/04/19 09:43:33;;;;;;;1999.90;999.90;;;13.50;81.10;;;;;;5048114;28;20486;-69
2021/04/19 09:46:06;;;;;;;1999.90;999.90;;;13.50;81.40;;;;;;5049493;28;20044;-70
2021/04/19 09:48:40;;;;;;;1999.90;999.90;;;13.50;81.40;;;;;;5028031;28;20048;-70
2021/04/19 09:51:16;;;;;;;1999.90;999.90;;;13.50;81.80;;;;;;5029838;28;20071;-70
2021/04/19 09:54:11;;;;;;;1999.90;999.90;;;13.70;82.70;;;;;;5044632;28;20120;-71
2021/04/19 09:56:53;;;;;;;1999.90;999.90;;;14.00;82.70;;;;;;5046146;28;20041;-70
2021/04/19 09:59:26;;;;;;;1999.90;999.90;;;14.10;82.60;;;;;;5046965;28;20134;-69
2021/04/19 10:01:55;;;;;;;1999.90;999.90;;;14.20;82.50;;;;;;5048766;28;20059;-70
2021/04/19 10:04:22;;;;;;;1999.90;999.90;;;14.20;82.40;;;;;;5049625;28;20543;-70
2021/04/19 10:06:55;;;;;;;1999.90;999.90;;;14.10;82.00;;;;;;5049061;28;20044;-69
2021/04/19 10:09:24;;;;;;;1999.90;999.90;;;14.10;81.90;;;;;;5027148;28;20085;-70
2021/04/19 10:11:55;;;;;;;;;;;14.00;81.80;;;;;;5050950;28;20052;-70
2021/04/19 10:14:22;;;;;;;1999.90;999.90;;;14.10;82.70;;;;;;5045240;28;19943;-69
2021/04/19 10:16:50;;;;;;;1999.90;999.90;;;14.40;82.30;;;;;;5047717;28;20053;-70
2021/04/19 10:19:42;;;;;;;1999.90;999.90;;;14.60;82.20;;;;;;5029773;28;20052;-70
2021/04/19 10:22:10;;;;;;;1999.90;999.90;;;15.10;83.30;;;;;;5028724;28;20516;-70
2021/04/19 10:24:57;;;;;;;1999.90;999.90;;;15.40;82.70;;;;;;5050791;28;20060;-70
2021/04/19 10:27:28;;;;;;;1999.90;999.90;;;15.70;83.10;;;;;;5047147;28;20144;-70
2021/04/19 10:30:08;;;;;;;1999.90;999.90;;;16.10;83.40;;;;;;5051224;28;20462;-70
2021/04/19 10:32:34;;;;;;;1999.90;999.90;;;16.20;83.60;;;;;;5048083;28;20082;-70
2021/04/19 10:35:00;;;;;;;1999.90;999.90;;;16.20;82.60;;;;;;5048190;28;20115;-70
2021/04/19 10:37:27;;;;;;;1999.90;999.90;;;15.90;81.60;;;;;;5050681;28;20135;-70
2021/04/19 10:39:53;;;;;;;1999.90;999.90;;;15.60;81.30;;;;;;5050670;28;20057;-69
2021/04/19 10:42:24;;;;;;;1999.90;999.90;;;15.40;82.80;;;;;;5052218;28;20048;-69
2021/04/19 10:44:50;;;;;;;1999.90;999.90;;;15.50;85.00;;;;;;5052688;28;20051;-70
2021/04/19 10:47:30;;;;;;;1999.90;999.90;;;15.70;86.80;;;;;;5026391;28;20054;-70
2021/04/19 10:49:56;;;;;;;1999.90;999.90;;;15.80;87.40;;;;;;5034821;28;20455;-70
2021/04/19 10:52:23;;;;;;;1999.90;999.90;;;15.80;87.70;;;;;;5049576;28;20061;-70
2021/04/19 10:54:49;;;;;;;1999.90;999.90;;;15.80;86.70;;;;;;5045315;28;20053;-70
2021/04/19 10:57:25;;;;;;;1999.90;999.90;;;15.60;85.70;;;;;;5023731;28;20048;-70
2021/04/19 10:59:57;;;;;;;1999.90;999.90;;;15.40;84.70;;;;;;5047484;28;20076;-70
2021/04/19 11:02:28;;;;;;;1999.90;999.90;;;15.30;84.20;;;;;;5051246;28;20135;-70
2021/04/19 11:04:56;;;;;;;1999.90;999.90;;;15.20;83.90;;;;;;5048665;28;20148;-70
2021/04/19 11:07:22;;;;;;;1999.90;999.90;;;15.20;83.60;;;;;;5045068;28;20422;-71
2021/04/19 11:10:21;;;;;;;1999.90;999.90;;;15.20;83.30;;;;;;5052756;28;20484;-70
2021/04/19 11:12:59;;;;;;;1999.90;999.90;;;15.20;83.10;;;;;;5048004;28;20106;-71
2021/04/19 11:15:34;;;;;;;1999.90;999.90;;;15.20;82.40;;;;;;5051990;28;20059;-70
2021/04/19 11:18:14;;;;;;;1999.90;999.90;;;15.20;83.00;;;;;;5043210;28;20048;-70
2021/04/19 11:20:42;;;;;;;1999.90;999.90;;;15.40;84.60;;;;;;5049962;28;20056;-70
2021/04/19 11:23:28;;;;;;;1999.90;999.90;;;15.60;84.90;;;;;;5046443;28;20128;-71
2021/04/19 11:25:59;;;;;;;1999.90;999.90;;;15.70;84.40;;;;;;5048786;28;20508;-70
2021/04/19 11:28:34;;;;;;;1999.90;999.90;;;15.80;84.30;;;;;;5046798;28;20227;-70
2021/04/19 11:31:21;;;;;;;1999.90;999.90;;;15.80;83.50;;;;;;5045675;28;20052;-70
2021/04/19 11:34:06;;;;;;;1999.90;999.90;;;15.70;83.20;;;;;;5046723;28;20628;-71
2021/04/19 11:36:54;;;;;;;1999.90;999.90;;;15.70;82.00;;;;;;5035217;28;20060;-70
2021/04/19 11:39:21;;;;;;;1999.90;999.90;;;15.80;82.70;;;;;;5045589;28;20380;-71
2021/04/19 11:41:50;;;;;;;1999.90;999.90;;;15.90;82.80;;;;;;5044335;28;20497;-71
2021/04/19 11:44:16;;;;;;;1999.90;999.90;;;16.30;85.40;;;;;;5048930;28;20148;-70
2021/04/19 11:46:46;;;;;;;1999.90;999.90;;;16.70;87.30;;;;;;5046659;28;20049;-71
2021/04/19 11:49:23;;;;;;;1999.90;999.90;;;16.90;87.70;;;;;;5051952;28;20720;-70
2021/04/19 11:51:49;;;;;;;1999.90;999.90;;;16.90;86.90;;;;;;5030606;28;20048;-70
2021/04/19 11:54:16;;;;;;;1999.90;999.90;;;16.90;85.60;;;;;;5045483;28;20149;-70
2021/04/19 11:56:42;;;;;;;1999.90;999.90;;;16.80;84.70;;;;;;5046280;28;20144;-70
2021/04/19 11:59:08;;;;;;;1999.90;999.90;;;16.80;84.90;;;;;;5046895;28;20075;-70
2021/04/19 12:01:35;;;;;;;1999.90;999.90;;;17.10;86.60;;;;;;5051370;28;20086;-71
2021/04/19 12:04:04;;;;;;;1999.90;999.90;;;17.50;88.70;;;;;;5049003;28;20048;-70
2021/04/19 12:06:30;;;;;;;1999.90;999.90;;;17.80;87.40;;;;;;5055007;28;20653;-70
2021/04/19 12:08:56;;;;;;;1999.90;999.90;;;18.30;88.70;;;;;;5032547;28;20063;-70
2021/04/19 12:11:23;;;;;;;1999.90;999.90;;;18.60;85.10;;;;;;5050872;28;20060;-71
2021/04/19 12:13:50;;;;;;;1999.90;999.90;;;18.40;85.90;;;;;;5054067;28;20101;-70
2021/04/19 12:16:18;;;;;;;1999.90;999.90;;;18.40;88.70;;;;;;5051486;28;20056;-71
2021/04/19 12:18:45;;;;;;;1999.90;999.90;;;18.60;89.60;;;;;;5051619;28;20097;-71
2021/04/19 12:21:13;;;;;;;1999.90;999.90;;;18.70;90.10;;;;;;5050518;28;20420;-70
2021/04/19 12:23:39;;;;;;;1999.90;999.90;;;18.70;90.00;;;;;;5051382;28;20479;-70